createdAt,value
2019-02-09T00:00:28.884Z,7.80
2019-02-09T00:03:08.147Z,7.76
2019-02-09T00:05:40.859Z,7.74
2019-02-09T00:08:15.547Z,7.74
2019-02-09T00:10:49.249Z,7.72
2019-02-09T00:13:23.355Z,7.69
2019-02-09T00:15:56.353Z,7.65
2019-02-09T00:18:29.909Z,7.55
2019-02-09T00:21:03.647Z,7.50
2019-02-09T00:23:38.304Z,7.45
2019-02-09T00:26:10.927Z,7.43
2019-02-09T00:28:43.658Z,7.37
2019-02-09T00:31:21.225Z,7.38
2019-02-09T00:33:53.987Z,7.32
2019-02-09T00:36:26.827Z,7.25
2019-02-09T00:39:00.782Z,7.20
2019-02-09T00:41:33.405Z,7.16
2019-02-09T00:44:06.614Z,7.13
2019-02-09T00:46:42.519Z,7.09
2019-02-09T00:49:20.059Z,7.06
2019-02-09T00:51:54.330Z,7.05
2019-02-09T00:54:32.401Z,7.03
2019-02-09T00:57:07.860Z,7.02
2019-02-09T00:59:40.635Z,7.01
2019-02-09T01:02:14.793Z,7.00
2019-02-09T01:04:48.422Z,6.97
2019-02-09T01:07:21.006Z,6.95
2019-02-09T01:09:54.312Z,6.94
2019-02-09T01:12:27.031Z,6.95
2019-02-09T01:15:01.012Z,6.94
2019-02-09T01:17:34.963Z,6.92
2019-02-09T01:20:13.020Z,6.91
2019-02-09T01:22:45.722Z,6.89
2019-02-09T01:25:19.442Z,6.86
2019-02-09T01:27:52.930Z,6.84
2019-02-09T01:30:28.282Z,6.83
2019-02-09T01:33:02.308Z,6.83
2019-02-09T01:35:36.803Z,6.83
2019-02-09T01:38:10.456Z,6.81
2019-02-09T01:40:46.030Z,6.79
2019-02-09T01:43:18.575Z,6.79
2019-02-09T01:45:53.468Z,6.78
2019-02-09T01:48:28.097Z,6.79
2019-02-09T01:51:01.163Z,6.78
2019-02-09T01:53:33.809Z,6.77
2019-02-09T01:56:08.720Z,6.75
2019-02-09T01:58:42.210Z,6.74
2019-02-09T02:01:15.037Z,6.71
2019-02-09T02:03:50.583Z,6.72
2019-02-09T02:06:23.305Z,6.72
2019-02-09T02:08:55.715Z,6.73
2019-02-09T02:11:29.590Z,6.75
2019-02-09T02:14:02.811Z,6.77
2019-02-09T02:16:35.579Z,6.75
2019-02-09T02:19:08.789Z,6.75
2019-02-09T02:21:41.534Z,6.75
2019-02-09T02:24:14.124Z,6.75
2019-02-09T02:26:48.054Z,6.73
2019-02-09T02:29:20.693Z,6.72
2019-02-09T02:31:53.479Z,6.71
2019-02-09T02:34:27.470Z,6.70
2019-02-09T02:37:00.027Z,6.70
2019-02-09T02:39:32.624Z,6.71
2019-02-09T02:42:05.738Z,6.73
2019-02-09T02:44:38.393Z,6.73
2019-02-09T02:47:11.139Z,6.71
2019-02-09T02:49:45.804Z,6.70
2019-02-09T02:52:18.558Z,6.73
2019-02-09T02:54:52.181Z,6.73
2019-02-09T02:57:25.332Z,6.76
2019-02-09T02:59:57.928Z,6.80
2019-02-09T03:02:31.254Z,6.84
2019-02-09T03:05:05.377Z,6.85
2019-02-09T03:07:38.218Z,6.84
2019-02-09T03:10:11.371Z,6.85
2019-02-09T03:12:47.076Z,6.87
2019-02-09T03:15:24.835Z,6.91
2019-02-09T03:17:58.693Z,6.94
2019-02-09T03:20:31.859Z,6.97
2019-02-09T03:23:05.514Z,7.01
2019-02-09T03:25:38.295Z,7.02
2019-02-09T03:28:11.556Z,7.05
2019-02-09T03:30:47.555Z,7.09
2019-02-09T03:33:21.813Z,7.11
2019-02-09T03:35:54.826Z,7.13
2019-02-09T03:38:27.398Z,7.16
2019-02-09T03:41:01.412Z,7.19
2019-02-09T03:43:34.425Z,7.21
2019-02-09T03:46:07.218Z,7.22
2019-02-09T03:48:39.982Z,7.26
2019-02-09T03:51:13.619Z,7.29
2019-02-09T03:53:46.377Z,7.33
2019-02-09T03:56:19.108Z,7.35
2019-02-09T03:58:52.485Z,7.36
2019-02-09T04:01:25.396Z,7.42
2019-02-09T04:03:58.095Z,7.44
2019-02-09T04:06:33.327Z,7.49
2019-02-09T04:09:09.227Z,7.54
2019-02-09T04:11:42.021Z,7.60
2019-02-09T04:14:14.966Z,7.67
2019-02-09T04:16:47.670Z,7.68
2019-02-09T04:19:20.358Z,7.68
2019-02-09T04:21:53.154Z,7.76
2019-02-09T04:24:25.912Z,7.83
2019-02-09T04:26:58.628Z,7.87
2019-02-09T04:29:32.906Z,7.92
2019-02-09T04:32:05.889Z,7.89
2019-02-09T04:34:38.754Z,7.84
2019-02-09T04:37:11.732Z,7.83
2019-02-09T04:39:44.279Z,7.76
2019-02-09T04:42:16.879Z,7.63
2019-02-09T04:44:49.873Z,7.53
2019-02-09T04:47:22.828Z,7.47
2019-02-09T04:49:55.627Z,7.45
2019-02-09T04:52:28.860Z,7.37
2019-02-09T04:55:04.268Z,7.40
2019-02-09T04:57:37.926Z,7.34
2019-02-09T05:00:17.841Z,7.29
2019-02-09T05:02:51.341Z,7.34
2019-02-09T05:05:24.132Z,7.39
2019-02-09T05:07:58.273Z,7.39
2019-02-09T05:10:33.544Z,7.44
2019-02-09T05:13:06.257Z,7.49
2019-02-09T05:15:39.275Z,7.51
2019-02-09T05:18:11.980Z,7.53
2019-02-09T05:20:44.796Z,7.62
2019-02-09T05:23:18.844Z,7.69
2019-02-09T05:25:52.165Z,7.64
2019-02-09T05:28:26.906Z,7.60
2019-02-09T05:31:00.845Z,7.59
2019-02-09T05:33:34.141Z,7.62
2019-02-09T05:36:06.760Z,7.62
2019-02-09T05:38:39.788Z,7.64
2019-02-09T05:41:12.560Z,7.66
2019-02-09T05:43:45.414Z,7.64
2019-02-09T05:46:18.369Z,7.65
2019-02-09T05:48:51.110Z,7.67
2019-02-09T05:51:23.866Z,7.66
2019-02-09T05:53:57.398Z,7.67
2019-02-09T05:56:31.154Z,7.69
2019-02-09T05:59:04.793Z,7.76
2019-02-09T06:01:37.653Z,7.78
2019-02-09T06:04:10.869Z,7.76
2019-02-09T06:06:43.504Z,7.76
2019-02-09T06:09:16.847Z,7.80
2019-02-09T06:11:49.669Z,7.80
2019-02-09T06:14:23.284Z,7.78
2019-02-09T06:16:57.263Z,7.75
2019-02-09T06:19:31.243Z,7.79
2019-02-09T06:22:03.981Z,7.82
2019-02-09T06:24:37.546Z,7.81
2019-02-09T06:27:10.303Z,7.80
2019-02-09T06:29:43.014Z,7.77
2019-02-09T06:32:15.775Z,7.76
2019-02-09T06:34:48.485Z,7.80
2019-02-09T06:37:22.143Z,7.86
2019-02-09T06:39:56.584Z,7.84
2019-02-09T06:42:29.841Z,7.82
2019-02-09T06:45:04.357Z,7.80
2019-02-09T06:47:40.469Z,7.83
2019-02-09T06:50:17.437Z,7.82
2019-02-09T06:52:51.729Z,7.82
2019-02-09T06:55:25.431Z,7.82
2019-02-09T06:57:58.985Z,7.84
2019-02-09T07:00:31.571Z,7.85
2019-02-09T07:03:06.037Z,7.91
2019-02-09T07:05:39.160Z,7.95
2019-02-09T07:08:11.997Z,8.01
2019-02-09T07:10:47.668Z,8.03
2019-02-09T07:13:20.245Z,8.03
2019-02-09T07:15:53.191Z,8.08
2019-02-09T07:18:28.194Z,8.17
2019-02-09T07:21:00.997Z,8.19
2019-02-09T07:23:34.299Z,8.19
2019-02-09T07:26:07.569Z,8.17
2019-02-09T07:28:40.804Z,8.19
2019-02-09T07:31:13.501Z,8.16
2019-02-09T07:33:46.748Z,8.13
2019-02-09T07:36:19.734Z,8.13
2019-02-09T07:38:52.250Z,8.26
2019-02-09T07:41:25.674Z,8.38
2019-02-09T07:44:02.015Z,8.41
2019-02-09T07:46:35.455Z,8.39
2019-02-09T07:49:12.289Z,8.41
2019-02-09T07:51:46.425Z,8.43
2019-02-09T07:54:20.066Z,8.46
2019-02-09T07:56:55.609Z,8.41
2019-02-09T07:59:31.986Z,8.44
2019-02-09T08:02:04.945Z,8.45
2019-02-09T08:04:37.991Z,8.43
2019-02-09T08:07:10.729Z,8.41
2019-02-09T08:09:45.404Z,8.44
2019-02-09T08:12:21.088Z,8.48
2019-02-09T08:14:54.793Z,8.54
2019-02-09T08:17:28.023Z,8.54
2019-02-09T08:20:01.146Z,8.64
2019-02-09T08:22:35.609Z,8.66
2019-02-09T08:25:16.694Z,8.65
2019-02-09T08:27:51.526Z,8.64
2019-02-09T08:30:33.117Z,8.71
2019-02-09T08:33:08.001Z,8.74
2019-02-09T08:35:42.030Z,8.76
2019-02-09T08:38:16.580Z,8.78
2019-02-09T08:40:49.270Z,8.76
2019-02-09T08:43:22.292Z,8.77
2019-02-09T08:45:55.156Z,8.82
2019-02-09T08:48:28.260Z,8.81
2019-02-09T08:51:10.090Z,8.76
2019-02-09T08:53:43.722Z,8.80
2019-02-09T08:56:17.921Z,8.90
2019-02-09T08:58:50.816Z,8.93
2019-02-09T09:01:24.442Z,8.93
2019-02-09T09:03:58.733Z,8.95
2019-02-09T09:06:36.531Z,9.00
2019-02-09T09:09:11.789Z,9.08
2019-02-09T09:11:46.837Z,9.05
2019-02-09T09:14:19.688Z,9.02
2019-02-09T09:16:52.428Z,9.07
2019-02-09T09:19:26.173Z,9.08
2019-02-09T09:22:03.266Z,9.04
2019-02-09T09:24:36.074Z,9.03
2019-02-09T09:27:10.587Z,9.04
2019-02-09T09:29:45.010Z,9.21
2019-02-09T09:32:17.721Z,9.35
2019-02-09T09:34:52.832Z,9.44
2019-02-09T09:37:29.500Z,9.52
2019-02-09T09:40:02.783Z,9.55
2019-02-09T09:42:37.150Z,9.56
2019-02-09T09:45:17.523Z,9.58
2019-02-09T09:47:52.355Z,9.57
2019-02-09T09:50:26.644Z,9.53
2019-02-09T09:52:59.474Z,9.54
2019-02-09T09:55:34.375Z,9.67
2019-02-09T09:58:08.462Z,9.76
2019-02-09T10:00:42.988Z,9.78
2019-02-09T10:03:15.724Z,9.86
2019-02-09T10:05:48.891Z,10.07
2019-02-09T10:08:23.376Z,10.43
2019-02-09T10:10:56.443Z,10.35
2019-02-09T10:13:29.748Z,10.25
2019-02-09T10:16:02.944Z,10.08
2019-02-09T10:18:35.655Z,10.00
2019-02-09T10:21:11.109Z,10.03
2019-02-09T10:23:45.324Z,9.96
2019-02-09T10:26:19.432Z,9.90
2019-02-09T10:28:53.473Z,9.77
2019-02-09T10:31:28.161Z,9.71
2019-02-09T10:34:01.147Z,9.72
2019-02-09T10:36:35.298Z,9.71
2019-02-09T10:39:11.648Z,9.66
2019-02-09T10:41:46.211Z,9.61
2019-02-09T10:44:20.431Z,9.57
2019-02-09T10:46:53.744Z,9.59
2019-02-09T10:49:26.619Z,9.64
2019-02-09T10:52:08.347Z,9.76
2019-02-09T10:54:49.941Z,9.87
2019-02-09T10:57:34.761Z,9.89
2019-02-09T11:00:38.155Z,9.97
2019-02-09T11:03:33.570Z,9.97
2019-02-09T11:06:17.821Z,9.95
2019-02-09T11:09:00.912Z,9.93
2019-02-09T11:11:35.723Z,9.90
2019-02-09T11:14:10.169Z,9.86
2019-02-09T11:16:43.714Z,9.87
2019-02-09T11:19:18.127Z,9.92
2019-02-09T11:21:52.769Z,10.00
2019-02-09T11:24:29.904Z,10.08
2019-02-09T11:27:05.885Z,10.20
2019-02-09T11:29:39.980Z,10.50
2019-02-09T11:32:15.897Z,10.52
2019-02-09T11:34:49.421Z,10.45
2019-02-09T11:37:23.789Z,10.44
2019-02-09T11:39:57.413Z,10.53
2019-02-09T11:42:38.800Z,10.69
2019-02-09T11:45:23.391Z,10.71
2019-02-09T11:47:57.464Z,10.80
2019-02-09T11:50:33.463Z,10.72
2019-02-09T11:53:11.740Z,10.77
2019-02-09T11:55:47.048Z,11.50
2019-02-09T11:58:28.776Z,11.62
2019-02-09T12:01:06.933Z,11.28
2019-02-09T12:03:42.110Z,11.01
2019-02-09T12:06:20.821Z,10.78
2019-02-09T12:08:55.546Z,10.65
2019-02-09T12:11:36.245Z,10.61
2019-02-09T12:14:11.423Z,10.49
2019-02-09T12:16:49.974Z,10.49
2019-02-09T12:19:25.581Z,10.62
2019-02-09T12:22:01.803Z,10.71
2019-02-09T12:24:44.525Z,10.65
2019-02-09T12:27:34.050Z,10.57
2019-02-09T12:30:26.604Z,10.47
2019-02-09T12:33:06.467Z,10.42
2019-02-09T12:35:43.917Z,10.41
2019-02-09T12:38:20.344Z,10.32
2019-02-09T12:40:58.646Z,10.23
2019-02-09T12:43:34.733Z,10.14
2019-02-09T12:46:10.640Z,10.03
2019-02-09T12:48:44.622Z,9.90
2019-02-09T12:51:23.159Z,9.79
2019-02-09T12:53:58.875Z,9.76
2019-02-09T12:56:34.280Z,9.75
2019-02-09T12:59:14.609Z,9.76
2019-02-09T13:01:48.827Z,9.83
2019-02-09T13:04:24.362Z,9.95
2019-02-09T13:07:00.042Z,10.09
2019-02-09T13:09:33.846Z,10.26
2019-02-09T13:12:07.866Z,10.35
2019-02-09T13:14:42.301Z,10.38
2019-02-09T13:17:16.408Z,10.40
2019-02-09T13:19:53.226Z,10.41
2019-02-09T13:22:26.072Z,10.49
2019-02-09T13:25:00.272Z,10.57
2019-02-09T13:27:33.098Z,10.62
2019-02-09T13:30:17.997Z,10.66
2019-02-09T13:32:51.883Z,10.71
2019-02-09T13:35:26.407Z,10.76
2019-02-09T13:38:02.313Z,10.85
2019-02-09T13:40:35.630Z,10.90
2019-02-09T13:43:09.510Z,10.96
2019-02-09T13:45:50.312Z,10.97
2019-02-09T13:48:25.093Z,11.00
2019-02-09T13:50:59.154Z,11.05
2019-02-09T13:53:31.954Z,11.05
2019-02-09T13:56:07.738Z,11.04
2019-02-09T13:58:45.091Z,11.08
2019-02-09T14:01:20.597Z,11.07
2019-02-09T14:03:58.093Z,11.03
2019-02-09T14:06:32.343Z,11.01
2019-02-09T14:09:08.581Z,10.99
2019-02-09T14:11:43.957Z,10.96
2019-02-09T14:14:18.938Z,10.91
2019-02-09T14:16:52.539Z,10.55
2019-02-09T14:19:25.426Z,9.96
2019-02-09T14:21:59.748Z,9.82
2019-02-09T14:24:33.322Z,9.71
2019-02-09T14:27:23.486Z,9.61
2019-02-09T14:29:57.817Z,9.43
2019-02-09T14:32:31.285Z,9.18
2019-02-09T14:35:04.514Z,8.69
2019-02-09T14:37:37.309Z,8.07
2019-02-09T14:40:17.544Z,7.55
2019-02-09T14:42:52.816Z,7.28
2019-02-09T14:45:30.420Z,7.16
2019-02-09T14:48:04.842Z,7.14
2019-02-09T14:50:38.864Z,7.14
2019-02-09T14:53:14.028Z,7.14
2019-02-09T14:55:46.742Z,7.17
2019-02-09T14:58:19.484Z,7.21
2019-02-09T15:00:55.366Z,7.25
2019-02-09T15:03:30.636Z,7.26
2019-02-09T15:06:04.806Z,7.30
2019-02-09T15:08:39.262Z,7.32
2019-02-09T15:11:15.456Z,7.35
2019-02-09T15:13:53.542Z,7.45
2019-02-09T15:16:46.070Z,7.51
2019-02-09T15:19:28.551Z,7.48
2019-02-09T15:22:02.060Z,7.48
2019-02-09T15:24:34.894Z,7.51
2019-02-09T15:27:09.599Z,7.49
2019-02-09T15:29:43.633Z,7.53
2019-02-09T15:32:18.619Z,7.66
2019-02-09T15:34:52.033Z,7.77
2019-02-09T15:37:32.087Z,7.79
2019-02-09T15:40:09.563Z,7.86
2019-02-09T15:42:43.614Z,7.87
2019-02-09T15:45:24.567Z,7.88
2019-02-09T15:48:00.155Z,7.93
2019-02-09T15:50:33.130Z,8.00
2019-02-09T15:53:10.060Z,8.06
2019-02-09T15:55:43.550Z,8.10
2019-02-09T15:58:16.194Z,8.30
2019-02-09T16:00:51.339Z,8.45
2019-02-09T16:03:25.094Z,8.50
2019-02-09T16:06:00.620Z,8.52
2019-02-09T16:08:35.503Z,8.55
2019-02-09T16:11:08.283Z,8.52
2019-02-09T16:13:45.785Z,8.46
2019-02-09T16:16:19.855Z,8.58
2019-02-09T16:18:55.583Z,8.51
2019-02-09T16:21:31.827Z,8.47
2019-02-09T16:24:06.783Z,8.45
2019-02-09T16:26:42.087Z,8.49
2019-02-09T16:29:22.354Z,8.51
2019-02-09T16:31:57.667Z,8.52
2019-02-09T16:34:34.829Z,8.51
2019-02-09T16:37:10.090Z,8.54
2019-02-09T16:39:46.685Z,8.50
2019-02-09T16:42:21.152Z,8.49
2019-02-09T16:44:54.488Z,8.56
2019-02-09T16:47:28.307Z,8.63
2019-02-09T16:50:07.841Z,8.61
2019-02-09T16:52:45.137Z,8.60
2019-02-09T16:55:18.664Z,8.62
2019-02-09T16:57:53.117Z,8.66
2019-02-09T17:00:35.476Z,8.69
2019-02-09T17:03:10.334Z,8.74
2019-02-09T17:05:44.910Z,8.76
2019-02-09T17:08:17.868Z,8.76
2019-02-09T17:10:51.168Z,8.81
2019-02-09T17:13:24.490Z,8.88
2019-02-09T17:15:57.993Z,8.82
2019-02-09T17:18:34.193Z,8.75
2019-02-09T17:21:08.769Z,8.71
2019-02-09T17:23:46.228Z,8.69
2019-02-09T17:26:19.545Z,8.69
2019-02-09T17:28:52.551Z,8.80
2019-02-09T17:31:25.434Z,8.87
2019-02-09T17:33:59.668Z,8.91
2019-02-09T17:36:33.946Z,8.92
2019-02-09T17:39:08.766Z,8.88
2019-02-09T17:41:44.227Z,8.85
2019-02-09T17:44:18.799Z,8.87
2019-02-09T17:46:52.365Z,8.82
2019-02-09T17:49:25.120Z,8.81
2019-02-09T17:51:59.745Z,8.95
2019-02-09T17:54:33.876Z,9.05
2019-02-09T17:57:14.713Z,8.98
2019-02-09T17:59:47.662Z,8.84
2019-02-09T18:02:24.746Z,8.75
2019-02-09T18:05:04.629Z,8.70
2019-02-09T18:07:41.854Z,8.66
2019-02-09T18:10:21.302Z,8.67
2019-02-09T18:12:55.648Z,8.62
2019-02-09T18:15:29.015Z,8.67
2019-02-09T18:18:04.009Z,8.71
2019-02-09T18:20:37.665Z,8.74
2019-02-09T18:23:16.156Z,8.69
2019-02-09T18:25:49.972Z,8.62
2019-02-09T18:28:22.779Z,8.60
2019-02-09T18:30:59.500Z,8.60
2019-02-09T18:33:36.419Z,8.52
2019-02-09T18:36:10.096Z,8.46
2019-02-09T18:38:50.646Z,8.45
2019-02-09T18:41:25.282Z,8.47
2019-02-09T18:44:00.056Z,8.55
2019-02-09T18:46:33.081Z,8.57
2019-02-09T18:49:11.531Z,8.61
2019-02-09T18:51:46.864Z,8.66
2019-02-09T18:54:19.723Z,8.67
2019-02-09T18:57:03.441Z,8.73
2019-02-09T18:59:39.981Z,8.79
2019-02-09T19:02:12.906Z,8.83
2019-02-09T19:04:49.150Z,8.84
2019-02-09T19:07:22.749Z,8.80
2019-02-09T19:09:57.860Z,8.78
2019-02-09T19:12:31.944Z,8.82
2019-02-09T19:15:13.719Z,8.85
2019-02-09T19:17:48.192Z,8.86
2019-02-09T19:20:33.417Z,8.86
2019-02-09T19:23:07.665Z,8.82
2019-02-09T19:25:41.686Z,8.80
2019-02-09T19:28:15.160Z,8.77
2019-02-09T19:30:48.044Z,8.72
2019-02-09T19:33:23.798Z,8.71
2019-02-09T19:35:58.802Z,8.69
2019-02-09T19:38:32.954Z,8.66
2019-02-09T19:41:06.896Z,8.63
2019-02-09T19:43:41.351Z,8.59
2019-02-09T19:46:14.263Z,8.52
2019-02-09T19:48:49.131Z,8.51
2019-02-09T19:51:27.883Z,8.50
2019-02-09T19:54:04.936Z,8.48
2019-02-09T19:56:38.475Z,8.43
2019-02-09T19:59:14.060Z,8.39
2019-02-09T20:01:49.375Z,8.42
2019-02-09T20:04:23.778Z,8.43
2019-02-09T20:07:01.450Z,8.45
2019-02-09T20:09:40.721Z,8.49
2019-02-09T20:12:24.442Z,8.51
2019-02-09T20:14:58.293Z,8.49
2019-02-09T20:17:34.152Z,8.49
2019-02-09T20:20:14.700Z,8.47
2019-02-09T20:22:54.378Z,8.64
2019-02-09T20:25:31.688Z,8.81
2019-02-09T20:28:06.832Z,8.69
2019-02-09T20:30:45.166Z,8.61
2019-02-09T20:33:18.388Z,8.56
2019-02-09T20:35:52.909Z,8.57
2019-02-09T20:38:27.937Z,8.55
2019-02-09T20:41:06.454Z,8.52
2019-02-09T20:43:39.345Z,8.56
2019-02-09T20:46:13.235Z,8.61
2019-02-09T20:48:48.870Z,8.63
2019-02-09T20:51:21.711Z,8.61
2019-02-09T20:54:05.598Z,8.61
2019-02-09T20:56:38.278Z,8.61
2019-02-09T20:59:12.088Z,8.64
2019-02-09T21:01:46.801Z,8.70
2019-02-09T21:04:22.265Z,8.72
2019-02-09T21:06:59.962Z,8.71
2019-02-09T21:09:38.489Z,8.71
2019-02-09T21:12:15.249Z,8.70
2019-02-09T21:14:48.344Z,8.68
2019-02-09T21:17:22.354Z,8.71
2019-02-09T21:19:55.439Z,8.72
2019-02-09T21:22:28.254Z,8.71
2019-02-09T21:25:04.288Z,8.71
2019-02-09T21:27:37.997Z,8.69
2019-02-09T21:30:18.525Z,8.66
2019-02-09T21:32:53.108Z,8.62
2019-02-09T21:35:32.457Z,8.58
2019-02-09T21:38:08.649Z,8.56
2019-02-09T21:40:44.504Z,8.58
2019-02-09T21:43:18.937Z,8.58
2019-02-09T21:45:55.139Z,8.55
2019-02-09T21:48:28.444Z,8.50
2019-02-09T21:51:08.349Z,8.47
2019-02-09T21:53:43.485Z,8.44
2019-02-09T21:56:24.078Z,8.41
2019-02-09T21:58:58.001Z,8.39
2019-02-09T22:01:37.442Z,8.38
2019-02-09T22:04:11.160Z,8.38
2019-02-09T22:06:48.588Z,8.38
2019-02-09T22:09:22.044Z,8.36
2019-02-09T22:11:54.966Z,8.34
2019-02-09T22:14:31.062Z,8.32
2019-02-09T22:17:04.526Z,8.32
2019-02-09T22:19:39.990Z,8.28
2019-02-09T22:22:15.541Z,8.28
2019-02-09T22:24:49.446Z,8.25
2019-02-09T22:27:22.544Z,8.21
2019-02-09T22:29:56.382Z,8.20
2019-02-09T22:32:33.727Z,8.22
2019-02-09T22:35:12.787Z,8.24
2019-02-09T22:37:49.639Z,8.21
2019-02-09T22:40:27.896Z,8.20
2019-02-09T22:43:02.449Z,8.20
2019-02-09T22:45:35.906Z,8.19
2019-02-09T22:48:14.564Z,8.17
2019-02-09T22:50:49.043Z,8.15
2019-02-09T22:53:22.503Z,8.13
2019-02-09T22:55:58.392Z,8.10
2019-02-09T22:58:32.122Z,8.08
2019-02-09T23:01:36.189Z,8.08
2019-02-09T23:05:21.954Z,8.06
2019-02-09T23:07:56.364Z,8.07
2019-02-09T23:10:30.419Z,8.09
2019-02-09T23:13:04.804Z,8.08
2019-02-09T23:15:38.816Z,8.08
2019-02-09T23:18:13.244Z,8.10
2019-02-09T23:20:47.054Z,8.11
2019-02-09T23:23:20.317Z,8.12
2019-02-09T23:25:55.034Z,8.17
2019-02-09T23:28:27.875Z,8.17
2019-02-09T23:31:01.922Z,8.08
2019-02-09T23:33:38.161Z,8.03
2019-02-09T23:36:16.463Z,8.00
2019-02-09T23:38:55.581Z,7.98
2019-02-09T23:41:31.118Z,8.01
2019-02-09T23:44:09.625Z,8.04
2019-02-09T23:46:44.327Z,8.08
2019-02-09T23:49:20.522Z,8.12
2019-02-09T23:51:56.799Z,8.14
2019-02-09T23:54:30.810Z,8.16
2019-02-09T23:57:04.525Z,8.16
2019-02-09T23:59:38.339Z,8.16
